Terminal Aerodrome Forecast
Issued by NWS Lake Charles, LA

Current Version | Previous Version | Text Only | Print | Product List | Glossary On
Versions: 1 2 3 4 5 6 7 8 9 10 11 12 13 14
000
FTUS44 KLCH 170520
TAFBPT
TAF
KBPT 170520Z 1706/1806 17005KT P6SM FEW035 BKN250
     FM171500 21008KT P6SM SCT030 SCT250
     FM180100 19004KT P6SM SCT250=

USA.gov is the U.S. government's official web portal to all federal, state and local government web resources and services.